createdAt,value
2023-03-26T00:02:16.168Z,17.05
2023-03-26T00:04:42.687Z,19.23
2023-03-26T00:07:10.374Z,20.05
2023-03-26T00:09:36.691Z,19.27
2023-03-26T00:12:03.287Z,17.83
2023-03-26T00:14:30.397Z,16.45
2023-03-26T00:16:56.678Z,14.45
2023-03-26T00:19:22.958Z,19.08
2023-03-26T00:21:49.364Z,19.10
2023-03-26T00:24:16.099Z,22.98
2023-03-26T00:26:42.876Z,21.55
2023-03-26T00:29:10.322Z,19.75
2023-03-26T00:31:39.807Z,23.83
2023-03-26T00:34:06.328Z,19.15
2023-03-26T00:36:35.694Z,24.50
2023-03-26T00:39:05.439Z,20.33
2023-03-26T00:41:31.965Z,22.83
2023-03-26T00:43:58.943Z,18.23
2023-03-26T00:46:26.009Z,24.38
2023-03-26T00:48:52.628Z,35.47
2023-03-26T00:51:20.635Z,23.05
2023-03-26T00:53:47.945Z,18.80
2023-03-26T00:56:14.608Z,28.20
2023-03-26T00:58:41.350Z,21.48
2023-03-26T01:01:13.768Z,25.65
2023-03-26T01:03:41.839Z,27.38
2023-03-26T01:06:12.249Z,25.90
2023-03-26T01:08:42.763Z,32.00
2023-03-26T01:11:13.958Z,29.80
2023-03-26T01:13:42.766Z,25.55
2023-03-26T01:16:20.105Z,42.47
2023-03-26T01:18:46.958Z,36.42
2023-03-26T01:21:14.546Z,30.73
2023-03-26T01:23:49.073Z,33.78
2023-03-26T01:26:23.235Z,28.73
2023-03-26T01:28:51.275Z,31.23
2023-03-26T01:31:25.191Z,32.55
2023-03-26T01:33:58.414Z,40.00
2023-03-26T01:36:32.386Z,22.73
2023-03-26T01:39:09.732Z,21.48
2023-03-26T01:41:47.334Z,35.17
2023-03-26T01:44:19.604Z,30.27
2023-03-26T01:46:46.303Z,27.38
2023-03-26T01:49:15.835Z,31.48
2023-03-26T01:51:42.754Z,44.33
2023-03-26T01:54:12.139Z,38.42
2023-03-26T01:56:41.515Z,30.30
2023-03-26T01:59:24.423Z,43.90
2023-03-26T02:01:59.899Z,33.42
2023-03-26T02:04:31.329Z,42.17
2023-03-26T02:07:28.595Z,36.42
2023-03-26T02:09:58.268Z,39.00
2023-03-26T02:12:25.624Z,27.90
2023-03-26T02:14:52.657Z,38.85
2023-03-26T02:17:19.229Z,44.95
2023-03-26T02:19:45.644Z,38.17
2023-03-26T02:22:15.789Z,44.78
2023-03-26T02:24:42.997Z,36.45
2023-03-26T02:27:12.259Z,41.13
2023-03-26T02:29:39.941Z,45.65
2023-03-26T02:32:06.781Z,40.95
2023-03-26T02:34:33.331Z,36.80
2023-03-26T02:36:59.913Z,33.72
2023-03-26T02:39:26.623Z,51.50
2023-03-26T02:41:53.019Z,42.63
2023-03-26T02:44:19.374Z,38.28
2023-03-26T02:46:45.811Z,35.40
2023-03-26T02:49:12.184Z,36.95
2023-03-26T02:51:38.546Z,41.95
2023-03-26T02:54:04.957Z,43.92
2023-03-26T02:56:31.490Z,33.38
2023-03-26T02:58:57.837Z,49.08
2023-03-26T03:01:24.198Z,40.97
2023-03-26T03:03:50.547Z,39.70
2023-03-26T03:06:18.790Z,43.55
2023-03-26T03:08:48.532Z,46.33
2023-03-26T03:11:15.950Z,41.65
2023-03-26T03:13:42.374Z,45.25
2023-03-26T03:16:09.269Z,43.75
2023-03-26T03:18:35.850Z,36.33
2023-03-26T03:21:03.054Z,41.03
2023-03-26T03:23:29.444Z,46.78
2023-03-26T03:25:57.458Z,36.80
2023-03-26T03:28:24.569Z,50.30
2023-03-26T03:30:53.883Z,43.88
2023-03-26T03:33:20.677Z,46.53
2023-03-26T03:35:48.974Z,40.25
2023-03-26T03:38:16.157Z,52.05
2023-03-26T03:40:42.614Z,42.63
2023-03-26T03:43:09.030Z,43.58
2023-03-26T03:45:35.578Z,39.58
2023-03-26T03:48:02.003Z,51.30
2023-03-26T03:50:28.380Z,42.15
2023-03-26T03:52:56.018Z,42.63
2023-03-26T03:55:24.144Z,53.63
2023-03-26T03:57:52.432Z,41.13
2023-03-26T04:00:18.894Z,48.67
2023-03-26T04:02:46.346Z,37.35
2023-03-26T04:05:12.804Z,43.97
2023-03-26T04:07:39.356Z,44.42
2023-03-26T04:10:07.747Z,37.58
2023-03-26T04:12:34.242Z,45.08
2023-03-26T04:15:00.607Z,37.95
2023-03-26T04:17:27.045Z,31.45
2023-03-26T04:19:54.913Z,35.72
2023-03-26T04:22:21.741Z,42.85
2023-03-26T04:24:49.705Z,29.92
2023-03-26T04:27:21.926Z,38.38
2023-03-26T04:29:50.296Z,32.30
2023-03-26T04:32:26.515Z,38.70
2023-03-26T04:34:54.156Z,40.78
2023-03-26T04:37:28.389Z,40.75
2023-03-26T04:39:55.148Z,48.67
2023-03-26T04:42:21.509Z,39.33
2023-03-26T04:44:50.809Z,37.95
2023-03-26T04:47:20.299Z,48.42
2023-03-26T04:49:47.402Z,39.08
2023-03-26T04:52:14.332Z,38.50
2023-03-26T04:54:43.066Z,41.00
2023-03-26T04:57:13.541Z,34.22
2023-03-26T04:59:41.435Z,44.60
2023-03-26T05:02:09.508Z,45.88
2023-03-26T05:04:39.567Z,36.80
2023-03-26T05:07:06.225Z,41.97
2023-03-26T05:09:32.531Z,46.90
2023-03-26T05:11:59.079Z,43.67
2023-03-26T05:14:25.565Z,46.13
2023-03-26T05:16:53.280Z,42.33
2023-03-26T05:19:19.960Z,38.00
2023-03-26T05:21:46.257Z,57.00
2023-03-26T05:24:12.574Z,33.25
2023-03-26T05:26:38.894Z,39.97
2023-03-26T05:29:05.291Z,31.55
2023-03-26T05:31:31.645Z,52.65
2023-03-26T05:34:00.298Z,51.80
2023-03-26T05:36:28.433Z,45.90
2023-03-26T05:38:54.856Z,43.10
2023-03-26T05:41:21.203Z,31.85
2023-03-26T05:43:48.876Z,37.47
2023-03-26T05:46:15.815Z,47.03
2023-03-26T05:48:42.312Z,41.88
2023-03-26T05:51:08.695Z,37.78
2023-03-26T05:53:35.114Z,39.53
2023-03-26T05:56:02.102Z,37.30
2023-03-26T05:58:29.898Z,40.90
2023-03-26T06:00:59.980Z,34.38
2023-03-26T06:03:26.633Z,41.78
2023-03-26T06:05:53.105Z,42.10
2023-03-26T06:08:20.476Z,47.10
2023-03-26T06:10:46.766Z,37.97
2023-03-26T06:13:13.631Z,39.65
2023-03-26T06:15:39.972Z,36.20
2023-03-26T06:18:06.417Z,45.22
2023-03-26T06:20:32.870Z,57.53
2023-03-26T06:22:59.138Z,39.90
2023-03-26T06:25:25.514Z,41.45
2023-03-26T06:27:51.857Z,36.83
2023-03-26T06:30:18.306Z,36.45
2023-03-26T06:32:44.670Z,26.38
2023-03-26T06:35:11.484Z,36.17
2023-03-26T06:37:37.918Z,45.97
2023-03-26T06:40:04.813Z,41.03
2023-03-26T06:43:06.330Z,40.55
2023-03-26T06:45:17.566Z,31.45
2023-03-26T06:47:43.870Z,31.30
2023-03-26T06:50:11.971Z,36.15
2023-03-26T06:52:38.492Z,33.33
2023-03-26T06:55:06.484Z,41.45
2023-03-26T06:57:32.881Z,31.60
2023-03-26T06:59:59.192Z,34.22
2023-03-26T07:02:25.729Z,34.08
2023-03-26T07:04:52.845Z,27.83
2023-03-26T07:07:21.650Z,34.63
2023-03-26T07:09:48.174Z,30.52
2023-03-26T07:12:14.785Z,26.50
2023-03-26T07:14:41.096Z,34.17
2023-03-26T07:17:07.576Z,33.97
2023-03-26T07:19:34.003Z,32.10
2023-03-26T07:22:00.597Z,36.72
2023-03-26T07:24:27.182Z,38.58
2023-03-26T07:27:06.662Z,36.45
2023-03-26T07:29:53.223Z,25.23
2023-03-26T07:32:31.126Z,27.73
2023-03-26T07:35:07.310Z,41.38
2023-03-26T07:37:52.396Z,29.33
2023-03-26T07:40:37.746Z,32.72
2023-03-26T07:43:26.432Z,25.63
2023-03-26T07:45:54.096Z,32.78
2023-03-26T07:48:25.481Z,34.35
2023-03-26T07:50:52.154Z,32.22
2023-03-26T07:53:18.762Z,29.13
2023-03-26T07:56:07.136Z,36.80
2023-03-26T07:58:40.412Z,29.77
2023-03-26T08:01:28.023Z,35.05
2023-03-26T08:04:23.187Z,31.25
2023-03-26T08:06:54.244Z,32.58
2023-03-26T08:09:28.712Z,34.55
2023-03-26T08:11:58.585Z,35.60
2023-03-26T08:14:48.996Z,33.43
2023-03-26T08:17:33.737Z,31.13
2023-03-26T08:20:20.432Z,28.27
2023-03-26T08:22:50.809Z,36.80
2023-03-26T08:25:34.822Z,37.03
2023-03-26T08:28:08.612Z,32.45
2023-03-26T08:30:35.740Z,24.52
2023-03-26T08:33:11.809Z,37.22
2023-03-26T08:35:42.376Z,25.35
2023-03-26T08:41:01.782Z,40.03
2023-03-26T08:43:31.159Z,27.83
2023-03-26T08:46:06.636Z,40.55
2023-03-26T08:48:51.920Z,36.22
2023-03-26T08:51:40.815Z,34.22
2023-03-26T08:54:22.252Z,36.83
2023-03-26T08:56:54.744Z,37.17
2023-03-26T08:59:21.432Z,29.55
2023-03-26T09:01:53.661Z,31.60
2023-03-26T09:04:39.504Z,39.92
2023-03-26T09:07:06.947Z,27.73
2023-03-26T09:09:52.151Z,45.15
2023-03-26T09:12:20.859Z,36.42
2023-03-26T09:15:01.122Z,31.83
2023-03-26T09:17:46.517Z,37.92
2023-03-26T09:20:12.842Z,36.45
2023-03-26T09:22:48.537Z,38.75
2023-03-26T09:25:41.559Z,33.95
2023-03-26T09:28:21.988Z,42.63
2023-03-26T09:31:00.908Z,46.05
2023-03-26T09:33:33.244Z,51.72
2023-03-26T09:36:18.399Z,45.88
2023-03-26T09:38:44.728Z,43.50
2023-03-26T09:41:15.539Z,40.13
2023-03-26T09:46:25.456Z,39.53
2023-03-26T09:49:08.130Z,43.75
2023-03-26T09:51:59.063Z,43.15
2023-03-26T09:54:28.106Z,42.28
2023-03-26T09:57:08.489Z,30.30
2023-03-26T10:00:01.607Z,32.60
2023-03-26T10:02:45.972Z,33.58
2023-03-26T10:05:26.398Z,29.50
2023-03-26T10:07:57.151Z,37.05
2023-03-26T10:10:30.342Z,39.10
2023-03-26T10:13:13.878Z,31.58
2023-03-26T10:16:08.095Z,33.85
2023-03-26T10:18:48.853Z,34.67
2023-03-26T10:21:33.706Z,37.08
2023-03-26T10:24:00.355Z,32.03
2023-03-26T10:27:08.418Z,40.30
2023-03-26T10:29:43.994Z,28.20
2023-03-26T10:32:22.664Z,31.33
2023-03-26T10:35:08.201Z,28.02
2023-03-26T10:37:34.576Z,21.17
2023-03-26T10:40:19.121Z,23.17
2023-03-26T10:43:04.384Z,19.42
2023-03-26T10:45:45.137Z,20.30
2023-03-26T10:48:11.424Z,23.58
2023-03-26T10:50:46.766Z,19.55
2023-03-26T10:53:28.487Z,22.42
2023-03-26T10:55:56.515Z,23.35
2023-03-26T10:58:29.153Z,20.90
2023-03-26T11:01:22.382Z,20.65
2023-03-26T11:03:55.653Z,18.10
2023-03-26T11:06:23.681Z,18.30
2023-03-26T11:08:56.702Z,21.40
2023-03-26T11:11:36.755Z,15.82
2023-03-26T11:14:18.982Z,21.47
2023-03-26T11:17:00.906Z,13.32
2023-03-26T11:19:30.326Z,14.45
2023-03-26T11:21:56.568Z,12.35
2023-03-26T11:24:29.086Z,21.15
2023-03-26T11:26:58.298Z,16.35
2023-03-26T11:29:46.233Z,20.40
2023-03-26T11:32:14.017Z,17.52
2023-03-26T11:34:47.967Z,19.67
2023-03-26T11:37:18.682Z,21.35
2023-03-26T11:39:50.996Z,16.98
2023-03-26T11:42:19.229Z,17.52
2023-03-26T11:45:02.965Z,24.48
2023-03-26T11:47:35.836Z,16.45
2023-03-26T11:50:03.655Z,18.10
2023-03-26T11:52:30.054Z,15.55
2023-03-26T11:54:58.532Z,19.77
2023-03-26T11:57:30.903Z,14.45
2023-03-26T11:59:59.944Z,15.02
2023-03-26T12:02:34.149Z,19.27
2023-03-26T12:05:26.462Z,15.10
2023-03-26T12:07:54.458Z,23.50
2023-03-26T12:10:39.465Z,22.05
2023-03-26T12:13:24.241Z,19.63
2023-03-26T12:15:50.944Z,21.15
2023-03-26T12:18:24.753Z,17.15
2023-03-26T12:21:02.037Z,16.08
2023-03-26T12:23:47.085Z,19.73
2023-03-26T12:26:18.422Z,13.75
2023-03-26T12:28:46.479Z,21.40
2023-03-26T12:31:18.063Z,17.52
2023-03-26T12:34:02.858Z,17.90
2023-03-26T12:36:31.150Z,17.73
2023-03-26T12:39:16.372Z,15.27
2023-03-26T12:44:43.006Z,16.20
2023-03-26T12:44:54.604Z,18.85
2023-03-26T12:47:58.246Z,17.35
2023-03-26T12:50:34.275Z,14.63
2023-03-26T12:53:24.082Z,13.07
2023-03-26T12:55:51.203Z,11.60
2023-03-26T12:58:26.271Z,10.75
2023-03-26T13:01:02.584Z,16.70
2023-03-26T13:03:38.001Z,10.98
2023-03-26T13:06:09.926Z,14.48
2023-03-26T13:08:46.611Z,14.13
2023-03-26T13:11:38.856Z,10.68
2023-03-26T13:14:21.432Z,19.55
2023-03-26T13:16:47.850Z,14.52
2023-03-26T13:19:17.631Z,10.95
2023-03-26T13:21:59.494Z,13.25
2023-03-26T13:24:44.232Z,23.55
2023-03-26T13:27:16.823Z,15.60
2023-03-26T13:29:56.262Z,12.93
2023-03-26T13:32:36.143Z,12.77
2023-03-26T13:35:29.857Z,17.90
2023-03-26T13:38:15.340Z,14.25
2023-03-26T13:40:44.732Z,11.95
2023-03-26T13:43:23.321Z,10.63
2023-03-26T13:45:54.302Z,13.07
2023-03-26T13:48:27.037Z,18.83
2023-03-26T13:50:59.311Z,14.68
2023-03-26T13:53:28.818Z,11.65
2023-03-26T13:55:59.053Z,11.02
2023-03-26T13:58:34.809Z,9.77
2023-03-26T14:01:09.470Z,15.85
2023-03-26T14:03:35.942Z,15.13
2023-03-26T14:06:06.465Z,10.10
2023-03-26T14:08:42.366Z,10.60
2023-03-26T14:11:11.661Z,7.80
2023-03-26T14:13:56.502Z,13.32
2023-03-26T14:16:28.491Z,11.95
2023-03-26T14:19:00.966Z,13.07
2023-03-26T14:21:42.801Z,13.93
2023-03-26T14:24:28.076Z,13.15
2023-03-26T14:26:54.537Z,9.95
2023-03-26T14:29:31.452Z,14.82
2023-03-26T14:32:09.932Z,7.07
2023-03-26T14:34:42.789Z,11.52
2023-03-26T14:37:28.218Z,9.50
2023-03-26T14:40:14.823Z,7.43
2023-03-26T14:42:43.669Z,8.65
2023-03-26T14:45:28.651Z,12.63
2023-03-26T14:47:58.215Z,6.97
2023-03-26T14:50:46.660Z,10.60
2023-03-26T14:53:26.045Z,9.55
2023-03-26T14:56:04.250Z,8.57
2023-03-26T14:58:42.750Z,18.67
2023-03-26T15:01:18.563Z,14.00
2023-03-26T15:03:53.915Z,8.70
2023-03-26T15:06:23.352Z,13.52
2023-03-26T15:09:13.907Z,11.73
2023-03-26T15:11:46.069Z,7.40
2023-03-26T15:14:30.898Z,10.30
2023-03-26T15:16:57.231Z,9.70
2023-03-26T15:19:29.557Z,8.38
2023-03-26T15:22:14.836Z,14.73
2023-03-26T15:25:08.372Z,11.88
2023-03-26T15:27:54.098Z,9.90
2023-03-26T15:30:35.062Z,11.15
2023-03-26T15:35:35.612Z,8.73
2023-03-26T15:38:20.899Z,10.07
2023-03-26T15:40:59.667Z,9.88
2023-03-26T15:43:28.114Z,11.23
2023-03-26T15:45:57.388Z,12.02
2023-03-26T15:48:30.656Z,8.52
2023-03-26T15:51:12.452Z,16.95
2023-03-26T15:53:58.197Z,10.60
2023-03-26T15:56:55.942Z,9.90
2023-03-26T15:59:40.953Z,8.43
2023-03-26T16:02:07.434Z,12.10
2023-03-26T16:04:41.586Z,10.77
2023-03-26T16:07:29.470Z,11.45
2023-03-26T16:10:16.012Z,11.90
2023-03-26T16:13:14.564Z,13.32
2023-03-26T16:15:41.290Z,13.02
2023-03-26T16:18:11.934Z,12.27
2023-03-26T16:20:46.675Z,14.27
2023-03-26T16:23:31.853Z,9.43
2023-03-26T16:26:00.407Z,9.00
2023-03-26T16:28:52.931Z,12.90
2023-03-26T16:31:36.982Z,10.60
2023-03-26T16:34:05.158Z,8.23
2023-03-26T16:36:37.531Z,12.48
2023-03-26T16:39:04.733Z,9.65
2023-03-26T16:41:32.589Z,8.38
2023-03-26T16:44:17.610Z,11.23
2023-03-26T16:47:00.434Z,8.95
2023-03-26T16:49:29.606Z,8.55
2023-03-26T16:52:02.811Z,9.63
2023-03-26T16:54:36.140Z,10.80
2023-03-26T16:57:22.989Z,12.45
2023-03-26T17:00:05.382Z,9.25
2023-03-26T17:02:38.583Z,6.53
2023-03-26T17:05:23.920Z,8.27
2023-03-26T17:08:02.776Z,7.93
2023-03-26T17:10:33.856Z,8.32
2023-03-26T17:13:23.368Z,9.68
2023-03-26T17:16:02.600Z,10.38
2023-03-26T17:19:07.932Z,9.90
2023-03-26T17:21:47.034Z,8.05
2023-03-26T17:24:26.227Z,9.98
2023-03-26T17:27:01.412Z,7.18
2023-03-26T17:29:31.516Z,8.95
2023-03-26T17:32:00.720Z,11.38
2023-03-26T17:34:40.130Z,10.52
2023-03-26T17:37:22.045Z,8.77
2023-03-26T17:39:51.501Z,8.45
2023-03-26T17:42:19.358Z,11.10
2023-03-26T17:44:55.670Z,9.27
2023-03-26T17:47:28.217Z,8.90
2023-03-26T17:50:15.000Z,8.18
2023-03-26T17:52:48.181Z,9.82
2023-03-26T17:55:19.666Z,11.20
2023-03-26T17:57:49.993Z,8.07
2023-03-26T18:00:18.450Z,9.80
2023-03-26T18:02:47.722Z,9.68
2023-03-26T18:05:16.206Z,5.97
2023-03-26T18:08:06.075Z,7.43
2023-03-26T18:10:40.459Z,8.20
2023-03-26T18:13:15.188Z,6.47
2023-03-26T18:15:48.272Z,8.88
2023-03-26T18:18:19.799Z,6.72
2023-03-26T18:20:47.856Z,7.03
2023-03-26T18:23:22.182Z,9.00
2023-03-26T18:26:17.849Z,11.07
2023-03-26T18:28:45.854Z,16.52
2023-03-26T18:31:18.664Z,12.60
2023-03-26T18:33:46.879Z,10.88
2023-03-26T18:36:14.205Z,8.10
2023-03-26T18:38:42.808Z,11.27
2023-03-26T18:41:15.509Z,11.13
2023-03-26T18:43:43.990Z,7.28
2023-03-26T18:46:12.246Z,9.43
2023-03-26T18:48:38.868Z,5.90
2023-03-26T18:51:06.091Z,9.82
2023-03-26T18:53:37.863Z,10.93
2023-03-26T18:56:17.677Z,9.40
2023-03-26T18:58:49.951Z,6.90
2023-03-26T19:01:25.420Z,12.85
2023-03-26T19:03:53.706Z,8.85
2023-03-26T19:06:20.905Z,6.30
2023-03-26T19:08:47.904Z,12.50
2023-03-26T19:11:16.237Z,13.88
2023-03-26T19:13:42.648Z,9.55
2023-03-26T19:16:14.539Z,8.00
2023-03-26T19:18:44.197Z,9.80
2023-03-26T19:21:10.668Z,8.85
2023-03-26T19:23:38.832Z,13.00
2023-03-26T19:26:06.441Z,7.38
2023-03-26T19:28:35.249Z,14.07
2023-03-26T19:31:09.432Z,9.60
2023-03-26T19:33:37.868Z,9.32
2023-03-26T19:36:05.994Z,6.82
2023-03-26T19:38:43.005Z,10.30
2023-03-26T19:41:27.921Z,10.75
2023-03-26T19:43:55.869Z,11.13
2023-03-26T19:46:23.253Z,13.38
2023-03-26T19:48:51.847Z,10.10
2023-03-26T19:51:22.704Z,10.40
2023-03-26T19:53:53.749Z,15.68
2023-03-26T19:56:21.319Z,8.07
2023-03-26T19:58:48.635Z,12.30
2023-03-26T20:01:19.895Z,9.98
2023-03-26T20:03:47.886Z,8.95
2023-03-26T20:06:19.452Z,7.05
2023-03-26T20:08:47.181Z,6.82
2023-03-26T20:11:19.361Z,6.20
2023-03-26T20:13:46.319Z,14.18
2023-03-26T20:16:18.265Z,13.13
2023-03-26T20:18:44.653Z,9.35
2023-03-26T20:21:12.265Z,5.43
2023-03-26T20:23:39.258Z,9.60
2023-03-26T20:26:05.678Z,10.77
2023-03-26T20:28:35.425Z,7.07
2023-03-26T20:31:12.322Z,9.05
2023-03-26T20:33:39.785Z,5.63
2023-03-26T20:36:10.191Z,6.80
2023-03-26T20:38:39.603Z,9.15
2023-03-26T20:41:12.371Z,10.27
2023-03-26T20:43:38.711Z,9.48
2023-03-26T20:46:05.274Z,17.90
2023-03-26T20:48:31.654Z,6.40
2023-03-26T20:50:58.018Z,6.55
2023-03-26T20:53:24.354Z,5.38
2023-03-26T20:55:51.624Z,9.55
2023-03-26T20:58:32.018Z,8.50
2023-03-26T21:01:02.494Z,14.55
2023-03-26T21:03:29.016Z,10.95
2023-03-26T21:05:58.985Z,10.55
2023-03-26T21:08:30.137Z,11.90
2023-03-26T21:10:58.738Z,7.35
2023-03-26T21:13:39.352Z,6.57
2023-03-26T21:16:06.501Z,12.38
2023-03-26T21:18:33.107Z,11.27
2023-03-26T21:21:14.123Z,6.95
2023-03-26T21:23:56.696Z,9.48
2023-03-26T21:26:35.821Z,7.80
2023-03-26T21:29:08.563Z,6.32
2023-03-26T21:31:37.696Z,9.27
2023-03-26T21:34:05.662Z,7.55
2023-03-26T21:36:32.364Z,5.60
2023-03-26T21:38:58.942Z,7.88
2023-03-26T21:41:45.764Z,8.68
2023-03-26T21:44:14.192Z,12.40
2023-03-26T21:46:41.226Z,11.27
2023-03-26T21:49:07.705Z,11.18
2023-03-26T21:51:34.209Z,15.60
2023-03-26T21:54:00.534Z,6.00
2023-03-26T21:56:45.584Z,11.15
2023-03-26T21:59:26.488Z,7.75
2023-03-26T22:02:01.689Z,8.68
2023-03-26T22:04:49.043Z,7.22
2023-03-26T22:07:32.562Z,7.43
2023-03-26T22:09:59.146Z,7.82
2023-03-26T22:12:25.656Z,9.50
2023-03-26T22:14:52.496Z,7.97
2023-03-26T22:17:19.246Z,13.88
2023-03-26T22:19:45.540Z,8.15
2023-03-26T22:22:12.524Z,12.25
2023-03-26T22:24:38.995Z,16.38
2023-03-26T22:27:05.547Z,8.82
2023-03-26T22:29:32.383Z,9.48
2023-03-26T22:31:58.674Z,7.15
2023-03-26T22:34:25.004Z,5.07
2023-03-26T22:36:52.529Z,7.05
2023-03-26T22:39:18.856Z,10.65
2023-03-26T22:41:45.167Z,7.40
2023-03-26T22:44:19.772Z,10.23
2023-03-26T22:46:49.291Z,11.57
2023-03-26T22:49:16.232Z,11.18
2023-03-26T22:51:42.560Z,10.43
2023-03-26T22:54:09.559Z,6.70
2023-03-26T22:56:36.998Z,11.25
2023-03-26T22:59:03.835Z,5.30
2023-03-26T23:01:30.581Z,7.95
2023-03-26T23:03:57.880Z,9.25
2023-03-26T23:06:24.273Z,5.32
2023-03-26T23:08:51.257Z,6.78
2023-03-26T23:11:18.685Z,4.80
2023-03-26T23:13:46.083Z,5.57
2023-03-26T23:16:13.042Z,10.75
2023-03-26T23:18:39.478Z,7.85
2023-03-26T23:21:12.179Z,8.05
2023-03-26T23:23:39.656Z,8.43
2023-03-26T23:26:06.793Z,5.15
2023-03-26T23:28:33.743Z,6.05
2023-03-26T23:31:01.005Z,6.95
2023-03-26T23:33:30.300Z,8.15
2023-03-26T23:35:57.658Z,6.07
2023-03-26T23:38:24.921Z,6.28
2023-03-26T23:40:57.484Z,7.20
2023-03-26T23:43:24.339Z,6.35
2023-03-26T23:45:50.800Z,5.45
2023-03-26T23:48:22.335Z,4.60
2023-03-26T23:50:52.621Z,7.03
2023-03-26T23:55:57.920Z,6.40
2023-03-26T23:58:26.455Z,7.70
